Time;durP1;ratioP1;P1;durP2;ratioP2;P2;SDS_P1;SDS_P2;PMS_P1;PMS_P2;Temp;Humidity;BMP_temperature;BMP_pressure;BME280_temperature;BME280_humidity;BME280_pressure;Samples;Min_cycle;Max_cycle;Signal;HPM_P1;HPM_P2
2022/05/31 00:00:32;;;;;;;8.67;3.80;;;;;;;;;;4995484;28;20188;-56
2022/05/31 00:02:58;;;;;;;5.00;3.87;;;;;;;;;;4987090;28;20209;-55
2022/05/31 00:05:25;;;;;;;5.93;4.20;;;;;;;;;;4986275;28;20375;-55
2022/05/31 00:07:51;;;;;;;5.00;3.93;;;;;;;;;;4995787;28;20195;-56
2022/05/31 00:10:17;;;;;;;6.00;3.93;;;;;;;;;;4997867;28;20213;-56
2022/05/31 00:12:43;;;;;;;6.23;3.97;;;;;;;;;;4989720;28;20181;-56
2022/05/31 00:15:10;;;;;;;4.70;4.23;;;;;;;;;;4992256;28;20190;-55
2022/05/31 00:17:36;;;;;;;5.60;4.00;;;;;;;;;;4991381;28;20213;-55
2022/05/31 00:20:04;;;;;;;6.03;4.50;;;;;;;;;;4996575;28;20571;-56
2022/05/31 00:22:30;;;;;;;9.33;4.03;;;;;;;;;;4993260;28;20194;-55
2022/05/31 00:24:55;;;;;;;5.27;4.03;;;;;;;;;;4995254;28;21088;-56
2022/05/31 00:27:22;;;;;;;5.33;3.80;;;;;;;;;;4993294;28;20218;-56
2022/05/31 00:29:48;;;;;;;4.90;4.23;;;;;;;;;;4994326;28;20672;-55
2022/05/31 00:32:15;;;;;;;4.33;3.93;;;;;;;;;;4989247;28;20196;-56
2022/05/31 00:34:43;;;;;;;5.13;4.40;;;;;;;;;;4993755;28;20194;-55
2022/05/31 00:37:09;;;;;;;4.87;4.37;;;;;;;;;;4997457;28;20264;-56
2022/05/31 00:39:35;;;;;;;7.93;4.30;;;;;;;;;;4997469;28;20692;-55
2022/05/31 00:42:02;;;;;;;6.27;3.93;;;;;;;;;;4993139;28;20187;-55
2022/05/31 00:44:28;;;;;;;4.60;4.03;;;;;;;;;;4994446;28;20194;-55
2022/05/31 00:46:56;;;;;;;5.60;4.20;;;;;;;;;;4990692;28;20260;-55
2022/05/31 00:49:25;;;;;;;5.27;4.53;;;;;;;;;;4999704;28;20198;-55
2022/05/31 00:51:51;;;;;;;6.60;4.57;;;;;;;;;;4989637;28;20190;-55
2022/05/31 00:54:18;;;;;;;6.20;4.90;;;;;;;;;;4999806;28;20196;-56
2022/05/31 00:56:44;;;;;;;6.30;5.00;;;;;;;;;;4987805;28;20966;-55
2022/05/31 00:59:12;;;;;;;5.90;4.73;;;;;;;;;;4999995;28;20548;-55
2022/05/31 01:01:39;;;;;;;6.27;4.63;;;;;;;;;;4991976;28;20556;-55
2022/05/31 01:04:05;;;;;;;5.37;4.87;;;;;;;;;;4983509;28;20738;-55
2022/05/31 01:06:32;;;;;;;5.27;4.70;;;;;;;;;;4996459;28;20665;-56
2022/05/31 01:08:58;;;;;;;6.10;4.67;;;;;;;;;;4992776;28;20189;-56
2022/05/31 01:11:27;;;;;;;6.53;4.60;;;;;;;;;;4992966;28;20355;-55
2022/05/31 01:13:53;;;;;;;7.30;5.00;;;;;;;;;;4993411;28;20182;-56
2022/05/31 01:16:19;;;;;;;8.43;5.10;;;;;;;;;;4996258;28;20187;-55
2022/05/31 01:18:45;;;;;;;7.73;4.80;;;;;;;;;;4991316;28;20761;-55
2022/05/31 01:21:11;;;;;;;8.30;5.00;;;;;;;;;;4992723;28;20855;-56
2022/05/31 01:23:49;;;;;;;5.60;4.70;;;;;;;;;;4996366;28;20684;-55
2022/05/31 01:26:33;;;;;;;6.70;4.53;;;;;;;;;;4992651;28;20558;-55
2022/05/31 01:29:05;;;;;;;6.47;4.90;;;;;;;;;;4997922;28;20284;-56
2022/05/31 01:31:31;;;;;;;5.60;4.87;;;;;;;;;;4991158;28;20297;-56
2022/05/31 01:34:05;;;;;;;6.00;4.97;;;;;;;;;;4994671;28;20232;-55
2022/05/31 01:36:33;;;;;;;5.10;4.60;;;;;;;;;;4993261;28;20184;-55
2022/05/31 01:39:07;;;;;;;5.40;4.83;;;;;;;;;;4996232;28;20565;-55
2022/05/31 01:41:34;;;;;;;5.17;4.37;;;;;;;;;;4997042;28;20190;-55
2022/05/31 01:44:01;;;;;;;5.50;5.00;;;;;;;;;;4991706;28;20687;-55
2022/05/31 01:46:30;;;;;;;5.20;4.70;;;;;;;;;;4995556;28;20198;-55
2022/05/31 01:48:56;;;;;;;5.30;4.67;;;;;;;;;;4995665;28;20190;-55
2022/05/31 01:51:22;;;;;;;5.10;4.60;;;;;;;;;;4992331;28;20217;-56
2022/05/31 01:53:48;;;;;;;6.10;4.80;;;;;;;;;;4995002;28;20190;-55
2022/05/31 01:56:14;;;;;;;5.97;4.67;;;;;;;;;;4995208;28;20221;-55
2022/05/31 01:58:41;;;;;;;5.37;4.73;;;;;;;;;;4992601;28;20265;-55
2022/05/31 02:01:07;;;;;;;5.23;4.67;;;;;;;;;;4990306;28;20278;-55
2022/05/31 02:03:33;;;;;;;7.63;5.27;;;;;;;;;;4988440;28;20197;-55
2022/05/31 02:05:59;;;;;;;6.73;4.53;;;;;;;;;;4993256;28;20718;-55
2022/05/31 02:08:25;;;;;;;5.10;4.30;;;;;;;;;;4993435;28;20249;-55
2022/05/31 02:10:54;;;;;;;5.53;4.63;;;;;;;;;;4993126;28;20217;-55
2022/05/31 02:13:20;;;;;;;6.03;4.50;;;;;;;;;;4989592;28;20754;-55
2022/05/31 02:15:46;;;;;;;6.47;4.80;;;;;;;;;;4993923;28;20272;-56
2022/05/31 02:18:12;;;;;;;5.63;4.57;;;;;;;;;;4992108;28;21096;-56
2022/05/31 02:20:38;;;;;;;7.03;4.50;;;;;;;;;;4984114;28;20271;-55
2022/05/31 02:23:04;;;;;;;7.13;4.60;;;;;;;;;;4991653;28;20189;-56
2022/05/31 02:25:30;;;;;;;6.23;4.00;;;;;;;;;;4987526;28;20201;-56
2022/05/31 02:27:56;;;;;;;5.70;4.10;;;;;;;;;;4993454;28;20580;-55
2022/05/31 02:30:22;;;;;;;5.10;3.90;;;;;;;;;;4992721;28;20222;-55
2022/05/31 02:32:48;;;;;;;6.70;4.40;;;;;;;;;;4993095;28;20601;-55
2022/05/31 02:35:14;;;;;;;5.83;3.83;;;;;;;;;;4991437;28;20308;-55
2022/05/31 02:37:40;;;;;;;5.77;4.03;;;;;;;;;;4992506;28;20193;-55
2022/05/31 02:40:06;;;;;;;5.13;4.03;;;;;;;;;;4995326;28;20720;-55
2022/05/31 02:42:32;;;;;;;5.57;3.80;;;;;;;;;;4992040;28;20193;-55
2022/05/31 02:44:58;;;;;;;6.13;3.97;;;;;;;;;;4992838;28;20190;-56
2022/05/31 02:47:24;;;;;;;4.93;3.90;;;;;;;;;;4992721;28;20462;-55
2022/05/31 02:49:50;;;;;;;5.33;3.90;;;;;;;;;;4986435;28;20220;-56
2022/05/31 02:52:16;;;;;;;5.10;4.00;;;;;;;;;;4989285;28;20261;-55
2022/05/31 02:54:43;;;;;;;4.73;4.20;;;;;;;;;;4994527;28;20316;-56
2022/05/31 02:57:09;;;;;;;6.73;4.20;;;;;;;;;;4991840;28;20459;-55
2022/05/31 02:59:35;;;;;;;4.30;3.70;;;;;;;;;;4991898;28;20647;-56
2022/05/31 03:02:01;;;;;;;7.13;4.50;;;;;;;;;;4984017;28;20182;-55
2022/05/31 03:04:27;;;;;;;4.53;3.70;;;;;;;;;;4986189;28;20233;-55
2022/05/31 03:06:52;;;;;;;4.43;3.73;;;;;;;;;;4987797;28;20241;-55
2022/05/31 03:09:18;;;;;;;4.27;3.67;;;;;;;;;;4987671;28;20190;-56
2022/05/31 03:11:46;;;;;;;6.20;3.80;;;;;;;;;;4993812;28;20289;-55
2022/05/31 03:14:14;;;;;;;5.30;3.70;;;;;;;;;;4992133;28;20230;-56
2022/05/31 03:16:41;;;;;;;6.10;3.53;;;;;;;;;;4992053;28;20221;-55
2022/05/31 03:19:07;;;;;;;5.17;3.63;;;;;;;;;;4989363;28;20193;-56
2022/05/31 03:21:42;;;;;;;3.70;3.40;;;;;;;;;;4989262;28;20573;-56
2022/05/31 03:24:10;;;;;;;5.60;3.80;;;;;;;;;;4992492;28;20200;-56
2022/05/31 03:26:36;;;;;;;6.37;3.83;;;;;;;;;;4989902;28;20289;-54
2022/05/31 03:29:02;;;;;;;5.20;3.80;;;;;;;;;;4991553;28;20293;-55
2022/05/31 03:31:28;;;;;;;5.30;3.77;;;;;;;;;;4993526;28;20264;-54
2022/05/31 03:33:53;;;;;;;6.23;4.07;;;;;;;;;;4989989;28;20725;-54
2022/05/31 03:36:19;;;;;;;4.77;3.77;;;;;;;;;;4989470;28;20193;-54
2022/05/31 03:38:45;;;;;;;7.63;4.07;;;;;;;;;;4989780;28;20197;-54
2022/05/31 03:41:11;;;;;;;4.90;3.40;;;;;;;;;;4993010;28;20204;-54
2022/05/31 03:43:37;;;;;;;4.70;3.40;;;;;;;;;;4992095;28;20193;-55
2022/05/31 03:46:03;;;;;;;4.80;3.37;;;;;;;;;;4991076;28;20220;-54
2022/05/31 03:48:29;;;;;;;4.47;3.20;;;;;;;;;;4985841;28;20285;-56
2022/05/31 03:51:02;;;;;;;4.73;3.67;;;;;;;;;;4991410;28;20217;-56
2022/05/31 03:53:28;;;;;;;4.83;3.37;;;;;;;;;;4987572;28;20201;-56
2022/05/31 03:55:54;;;;;;;3.60;3.30;;;;;;;;;;4990069;28;20182;-56
2022/05/31 03:58:21;;;;;;;4.43;3.37;;;;;;;;;;4992532;28;20206;-54
2022/05/31 04:00:46;;;;;;;4.10;3.70;;;;;;;;;;4985704;28;20652;-54
2022/05/31 04:03:13;;;;;;;3.30;3.00;;;;;;;;;;4988530;28;20260;-54
2022/05/31 04:05:39;;;;;;;3.50;3.10;;;;;;;;;;4992179;28;20277;-55
2022/05/31 04:08:11;;;;;;;8.30;3.37;;;;;;;;;;4994633;28;20189;-57
2022/05/31 04:10:37;;;;;;;4.03;3.27;;;;;;;;;;4996918;28;20273;-56
2022/05/31 04:13:03;;;;;;;3.60;3.30;;;;;;;;;;4995331;28;20655;-56
2022/05/31 04:15:29;;;;;;;4.20;3.23;;;;;;;;;;4992274;28;20269;-56
2022/05/31 04:17:55;;;;;;;5.53;3.13;;;;;;;;;;4995803;28;20186;-56
2022/05/31 04:20:21;;;;;;;6.07;3.27;;;;;;;;;;4992504;28;20214;-56
2022/05/31 04:22:46;;;;;;;4.23;3.10;;;;;;;;;;4994965;28;20314;-56
2022/05/31 04:25:12;;;;;;;3.97;3.13;;;;;;;;;;4980196;28;20186;-56
2022/05/31 04:27:38;;;;;;;3.27;2.60;;;;;;;;;;4987239;28;20421;-55
2022/05/31 04:30:04;;;;;;;3.10;2.80;;;;;;;;;;4990164;28;20220;-55
2022/05/31 04:32:30;;;;;;;3.43;2.63;;;;;;;;;;4985223;28;20186;-54
2022/05/31 04:34:57;;;;;;;3.33;2.77;;;;;;;;;;4984113;28;20710;-54
2022/05/31 04:37:22;;;;;;;3.83;2.80;;;;;;;;;;4985195;28;20711;-54
2022/05/31 04:39:48;;;;;;;6.13;2.90;;;;;;;;;;4987573;28;20198;-55
2022/05/31 04:42:16;;;;;;;4.63;2.83;;;;;;;;;;4980810;28;20647;-55
2022/05/31 04:44:42;;;;;;;5.63;3.03;;;;;;;;;;4989908;28;20198;-55
2022/05/31 04:47:08;;;;;;;4.70;2.90;;;;;;;;;;4988137;28;20236;-54
2022/05/31 04:49:34;;;;;;;3.97;3.10;;;;;;;;;;4989778;28;20189;-54
2022/05/31 04:52:00;;;;;;;3.50;3.20;;;;;;;;;;4984769;28;20814;-54
2022/05/31 04:54:28;;;;;;;3.10;2.80;;;;;;;;;;4977482;28;20186;-54
2022/05/31 04:56:54;;;;;;;3.47;2.77;;;;;;;;;;4980637;28;20217;-54
2022/05/31 04:59:20;;;;;;;4.20;2.70;;;;;;;;;;4979476;28;20785;-54
2022/05/31 05:01:46;;;;;;;3.60;2.97;;;;;;;;;;4973884;28;20659;-54
2022/05/31 05:04:13;;;;;;;2.80;2.50;;;;;;;;;;4979955;28;20237;-54
2022/05/31 05:06:39;;;;;;;4.20;2.60;;;;;;;;;;4980143;28;20558;-58
2022/05/31 05:09:05;;;;;;;5.47;2.50;;;;;;;;;;4975724;28;20573;-56
2022/05/31 05:11:32;;;;;;;4.57;2.67;;;;;;;;;;4978069;28;20210;-56
2022/05/31 05:13:58;;;;;;;3.17;2.30;;;;;;;;;;4978423;28;20189;-55
2022/05/31 05:16:24;;;;;;;4.47;2.67;;;;;;;;;;4974883;28;20823;-55
2022/05/31 05:18:50;;;;;;;3.63;2.97;;;;;;;;;;4982130;28;20946;-56
2022/05/31 05:21:16;;;;;;;4.03;2.87;;;;;;;;;;4983580;28;20218;-56
2022/05/31 05:23:42;;;;;;;4.47;2.83;;;;;;;;;;4985649;28;20194;-57
2022/05/31 05:26:08;;;;;;;8.03;2.80;;;;;;;;;;4989541;28;20691;-57
2022/05/31 05:31:24;;;;;;;4.37;2.70;;;;;;;;;;4991753;28;20255;-57
2022/05/31 05:33:51;;;;;;;4.00;2.57;;;;;;;;;;4991630;28;20344;-57
2022/05/31 05:36:17;;;;;;;2.83;2.63;;;;;;;;;;4999795;28;20193;-57
2022/05/31 05:38:43;;;;;;;5.37;2.70;;;;;;;;;;4993413;28;20193;-57
2022/05/31 05:41:09;;;;;;;7.20;3.03;;;;;;;;;;4992206;28;20210;-57
2022/05/31 05:43:35;;;;;;;4.70;2.70;;;;;;;;;;4992394;28;20202;-57
2022/05/31 05:46:01;;;;;;;6.00;2.97;;;;;;;;;;4992598;28;21808;-56
2022/05/31 05:48:27;;;;;;;3.97;3.37;;;;;;;;;;4992172;28;20336;-56
2022/05/31 05:50:53;;;;;;;3.80;3.00;;;;;;;;;;4995471;28;20211;-57
2022/05/31 05:53:19;;;;;;;3.00;2.70;;;;;;;;;;4991871;28;20231;-58
2022/05/31 05:55:45;;;;;;;6.33;2.93;;;;;;;;;;4991016;28;20235;-58
2022/05/31 05:58:11;;;;;;;6.23;3.00;;;;;;;;;;4994834;28;20758;-58
2022/05/31 06:00:41;;;;;;;3.93;2.90;;;;;;;;;;4995099;28;20192;-57
2022/05/31 06:03:16;;;;;;;3.57;2.97;;;;;;;;;;4990740;28;20217;-57
2022/05/31 06:05:42;;;;;;;3.87;2.90;;;;;;;;;;4990191;28;20229;-57
2022/05/31 06:08:12;;;;;;;4.60;3.03;;;;;;;;;;4991845;28;20181;-57
2022/05/31 06:10:42;;;;;;;4.07;2.70;;;;;;;;;;4986836;28;20259;-57
2022/05/31 06:13:10;;;;;;;5.83;2.90;;;;;;;;;;4991302;28;20197;-57
2022/05/31 06:15:40;;;;;;;3.23;2.70;;;;;;;;;;4992642;28;20203;-57
2022/05/31 06:18:07;;;;;;;3.07;2.77;;;;;;;;;;4992553;28;20232;-57
2022/05/31 06:20:33;;;;;;;6.83;2.90;;;;;;;;;;4991810;28;20276;-57
2022/05/31 06:22:59;;;;;;;5.70;3.03;;;;;;;;;;4993823;28;20866;-58
2022/05/31 06:25:25;;;;;;;4.27;2.97;;;;;;;;;;4988528;28;20559;-57
2022/05/31 06:27:51;;;;;;;4.90;2.73;;;;;;;;;;4990640;28;20213;-56
2022/05/31 06:30:17;;;;;;;4.13;2.77;;;;;;;;;;4994788;28;20244;-57
2022/05/31 06:32:43;;;;;;;3.73;2.93;;;;;;;;;;4994726;28;20232;-57
2022/05/31 06:35:09;;;;;;;3.10;2.80;;;;;;;;;;4997644;28;20185;-56
2022/05/31 06:37:35;;;;;;;4.17;2.73;;;;;;;;;;4994222;28;20194;-57
2022/05/31 06:40:01;;;;;;;3.27;2.80;;;;;;;;;;4995168;28;20194;-57
2022/05/31 06:42:29;;;;;;;4.73;3.00;;;;;;;;;;4992975;28;20204;-56
2022/05/31 06:44:56;;;;;;;3.60;2.50;;;;;;;;;;4998291;28;20234;-57
2022/05/31 06:47:22;;;;;;;3.80;3.10;;;;;;;;;;4989919;28;20206;-57
2022/05/31 06:49:48;;;;;;;4.63;2.80;;;;;;;;;;4993515;28;20206;-57
2022/05/31 06:57:44;;;;;;;7.13;2.50;;;;;;;;;;4991797;28;20186;-57
2022/05/31 07:00:12;;;;;;;3.73;2.80;;;;;;;;;;4997951;28;20197;-57
2022/05/31 07:02:38;;;;;;;4.40;2.30;;;;;;;;;;4994167;28;20200;-57
2022/05/31 07:05:04;;;;;;;3.60;2.17;;;;;;;;;;4996101;28;20238;-57
2022/05/31 07:07:31;;;;;;;5.00;2.70;;;;;;;;;;4996695;28;20634;-57
2022/05/31 07:09:57;;;;;;;2.27;2.07;;;;;;;;;;4988214;28;20222;-57
2022/05/31 07:12:23;;;;;;;3.63;2.20;;;;;;;;;;4990637;28;20240;-57
2022/05/31 07:14:49;;;;;;;3.80;2.80;;;;;;;;;;4993588;28;20308;-57
2022/05/31 07:17:15;;;;;;;3.57;2.30;;;;;;;;;;4993693;28;20567;-57
2022/05/31 07:19:44;;;;;;;2.30;2.10;;;;;;;;;;4994675;28;20251;-57
2022/05/31 07:22:10;;;;;;;4.03;2.10;;;;;;;;;;4993107;28;20186;-57
2022/05/31 07:24:36;;;;;;;3.85;2.00;;;;;;;;;;4987405;28;20186;-58
2022/05/31 07:27:02;;;;;;;2.63;1.80;;;;;;;;;;4988344;28;20213;-57
2022/05/31 07:29:28;;;;;;;2.72;2.45;;;;;;;;;;4991261;28;20186;-57
2022/05/31 07:31:54;;;;;;;3.25;2.33;;;;;;;;;;4994883;28;20206;-57
2022/05/31 07:34:23;;;;;;;3.72;2.40;;;;;;;;;;4997087;28;20186;-57
2022/05/31 07:36:49;;;;;;;3.33;2.40;;;;;;;;;;4994191;28;20527;-57
2022/05/31 07:39:15;;;;;;;3.70;2.45;;;;;;;;;;4993193;28;20177;-57
2022/05/31 07:41:41;;;;;;;3.10;2.28;;;;;;;;;;4994440;28;20182;-57
2022/05/31 07:44:07;;;;;;;3.40;2.42;;;;;;;;;;4997137;28;20633;-56
2022/05/31 07:46:33;;;;;;;3.43;2.47;;;;;;;;;;4996661;28;20778;-57
2022/05/31 07:48:59;;;;;;;5.00;2.27;;;;;;;;;;4994920;28;20198;-57
2022/05/31 07:51:26;;;;;;;3.60;2.47;;;;;;;;;;4997637;28;20236;-56
2022/05/31 07:53:52;;;;;;;2.53;1.83;;;;;;;;;;5001568;28;20265;-57
2022/05/31 07:56:18;;;;;;;4.63;2.07;;;;;;;;;;4996475;28;20191;-57
2022/05/31 07:58:45;;;;;;;2.53;2.00;;;;;;;;;;4990289;28;20651;-57
2022/05/31 08:01:15;;;;;;;2.60;2.40;;;;;;;;;;4995756;28;20190;-57
2022/05/31 08:03:41;;;;;;;4.17;2.20;;;;;;;;;;4983185;28;20305;-57
2022/05/31 08:06:11;;;;;;;3.97;2.40;;;;;;;;;;4989912;28;20320;-57
2022/05/31 08:08:37;;;;;;;3.90;2.40;;;;;;;;;;4999502;28;20194;-56
2022/05/31 08:11:08;;;;;;;2.47;2.27;;;;;;;;;;4998171;28;20687;-57
2022/05/31 08:13:34;;;;;;;5.17;2.63;;;;;;;;;;4997750;28;20224;-57
2022/05/31 08:16:00;;;;;;;3.13;2.47;;;;;;;;;;4996530;28;20186;-56
2022/05/31 08:18:26;;;;;;;3.80;2.40;;;;;;;;;;4997557;28;20186;-58
2022/05/31 08:20:57;;;;;;;5.27;2.70;;;;;;;;;;4999535;28;20708;-56
2022/05/31 08:23:23;;;;;;;6.00;3.30;;;;;;;;;;4995718;28;20946;-57
2022/05/31 08:25:49;;;;;;;3.30;2.37;;;;;;;;;;4995188;28;20189;-57
2022/05/31 08:28:15;;;;;;;3.33;2.47;;;;;;;;;;4995038;28;20268;-57
2022/05/31 08:30:41;;;;;;;4.37;2.60;;;;;;;;;;4995084;28;20253;-57
2022/05/31 08:33:07;;;;;;;2.73;2.10;;;;;;;;;;4993185;28;20671;-57
2022/05/31 08:35:33;;;;;;;4.77;2.47;;;;;;;;;;4997150;28;20710;-57
2022/05/31 08:37:59;;;;;;;3.90;2.57;;;;;;;;;;4999368;28;20239;-57
2022/05/31 08:40:25;;;;;;;3.40;3.07;;;;;;;;;;4996150;28;20194;-57
2022/05/31 08:42:52;;;;;;;2.70;2.50;;;;;;;;;;4997023;28;20194;-57
2022/05/31 08:45:38;;;;;;;3.40;2.50;;;;;;;;;;4986844;28;20189;-56
2022/05/31 08:48:09;;;;;;;3.57;2.80;;;;;;;;;;4979220;28;20245;-56
2022/05/31 08:53:47;;;;;;;3.03;2.73;;;;;;;;;;4986249;28;20367;-57
2022/05/31 08:59:04;;;;;;;3.30;2.70;;;;;;;;;;4984734;28;20264;-57
2022/05/31 09:01:31;;;;;;;2.70;2.50;;;;;;;;;;4988104;28;20221;-57
2022/05/31 09:04:01;;;;;;;5.30;3.03;;;;;;;;;;4995434;28;20232;-57
2022/05/31 09:06:27;;;;;;;3.13;2.83;;;;;;;;;;4993523;28;20194;-57
2022/05/31 09:09:08;;;;;;;3.30;2.63;;;;;;;;;;4991362;28;20186;-56
2022/05/31 09:11:47;;;;;;;3.27;2.73;;;;;;;;;;4996188;28;20301;-57
2022/05/31 09:14:31;;;;;;;4.53;2.87;;;;;;;;;;4993364;28;20197;-57
2022/05/31 09:17:03;;;;;;;2.73;2.50;;;;;;;;;;4990945;28;20308;-57
2022/05/31 09:19:33;;;;;;;3.87;2.60;;;;;;;;;;4993332;28;20195;-56
2022/05/31 09:22:01;;;;;;;3.03;2.80;;;;;;;;;;4998034;28;20596;-57
2022/05/31 09:24:27;;;;;;;5.57;3.53;;;;;;;;;;4991769;28;20241;-56
2022/05/31 09:26:56;;;;;;;3.03;2.30;;;;;;;;;;4992814;28;20206;-58
2022/05/31 09:29:23;;;;;;;2.73;2.00;;;;;;;;;;4992659;28;20197;-57
2022/05/31 09:32:04;;;;;;;4.00;2.20;;;;;;;;;;4991812;28;20202;-57
2022/05/31 09:34:41;;;;;;;3.20;2.33;;;;;;;;;;4999704;28;20920;-57
2022/05/31 09:37:26;;;;;;;3.28;2.13;;;;;;;;;;4996141;28;20221;-57
2022/05/31 09:39:55;;;;;;;4.50;2.47;;;;;;;;;;4990347;28;20209;-57
2022/05/31 09:42:22;;;;;;;3.55;2.50;;;;;;;;;;4993895;28;20261;-57
2022/05/31 09:44:48;;;;;;;3.75;2.53;;;;;;;;;;4987140;28;20200;-57
2022/05/31 09:47:19;;;;;;;4.60;2.75;;;;;;;;;;4995691;28;20185;-56
2022/05/31 09:49:46;;;;;;;5.38;2.72;;;;;;;;;;4992779;28;20250;-57
2022/05/31 09:52:31;;;;;;;2.03;1.85;;;;;;;;;;4985595;28;20187;-57
2022/05/31 09:58:04;;;;;;;3.33;2.00;;;;;;;;;;4986461;28;20247;-57
2022/05/31 10:00:30;;;;;;;3.70;1.90;;;;;;;;;;4991753;28;20188;-56
2022/05/31 10:03:16;;;;;;;3.58;1.90;;;;;;;;;;4981357;28;20178;-57
2022/05/31 10:05:45;;;;;;;3.75;2.22;;;;;;;;;;4987573;28;20240;-58
2022/05/31 10:08:15;;;;;;;4.75;2.30;;;;;;;;;;4992975;28;20244;-57
2022/05/31 10:10:43;;;;;;;4.22;2.05;;;;;;;;;;4989403;28;20210;-58
2022/05/31 10:13:09;;;;;;;5.10;2.30;;;;;;;;;;4983818;28;20201;-57
2022/05/31 10:15:44;;;;;;;3.17;2.05;;;;;;;;;;4988090;28;20252;-57
2022/05/31 10:18:14;;;;;;;3.53;2.28;;;;;;;;;;4985580;28;20189;-58
2022/05/31 10:21:13;;;;;;;2.53;2.05;;;;;;;;;;4981694;28;20190;-56
2022/05/31 10:23:41;;;;;;;2.70;2.05;;;;;;;;;;4942204;28;20206;-56
2022/05/31 10:26:06;;;;;;;3.08;2.60;;;;;;;;;;4984710;28;20269;-56
2022/05/31 10:28:37;;;;;;;2.25;1.95;;;;;;;;;;4984499;28;20224;-56
2022/05/31 10:31:18;;;;;;;3.78;2.20;;;;;;;;;;4981301;28;20584;-56
2022/05/31 10:33:49;;;;;;;4.57;2.53;;;;;;;;;;4988688;28;20201;-57
2022/05/31 10:36:19;;;;;;;3.15;2.35;;;;;;;;;;4991947;28;20330;-57
2022/05/31 10:38:46;;;;;;;4.53;2.10;;;;;;;;;;4989252;28;20654;-57
2022/05/31 10:41:17;;;;;;;3.03;2.20;;;;;;;;;;4989320;28;20239;-58
2022/05/31 10:43:44;;;;;;;3.63;2.33;;;;;;;;;;4982104;28;20189;-57
2022/05/31 10:46:11;;;;;;;3.42;2.20;;;;;;;;;;4978737;28;20185;-57
2022/05/31 10:48:40;;;;;;;2.40;2.20;;;;;;;;;;4987853;28;20189;-58
2022/05/31 10:51:07;;;;;;;3.75;2.45;;;;;;;;;;4984069;28;20253;-55
2022/05/31 10:53:42;;;;;;;2.75;1.88;;;;;;;;;;4989414;28;20289;-55
2022/05/31 10:56:10;;;;;;;2.88;1.95;;;;;;;;;;4992067;28;21101;-58
2022/05/31 10:59:12;;;;;;;2.10;1.80;;;;;;;;;;4989206;28;20251;-58
2022/05/31 11:01:38;;;;;;;3.03;2.00;;;;;;;;;;4913678;28;20194;-57
2022/05/31 11:04:08;;;;;;;2.22;1.92;;;;;;;;;;4966636;28;20301;-57
2022/05/31 11:06:57;;;;;;;2.22;1.85;;;;;;;;;;4975798;28;20197;-58
2022/05/31 11:12:34;;;;;;;3.45;2.40;;;;;;;;;;4968010;28;20312;-58
2022/05/31 11:15:03;;;;;;;2.97;2.50;;;;;;;;;;4981482;28;20182;-57
2022/05/31 11:17:37;;;;;;;2.92;1.98;;;;;;;;;;4989812;28;20455;-57
2022/05/31 11:20:05;;;;;;;3.00;1.92;;;;;;;;;;4988641;28;20696;-57
2022/05/31 11:22:36;;;;;;;2.67;2.20;;;;;;;;;;4994131;28;20646;-57
2022/05/31 11:25:08;;;;;;;2.35;1.77;;;;;;;;;;4995109;28;20181;-57
2022/05/31 11:27:53;;;;;;;3.53;1.70;;;;;;;;;;4992288;28;21050;-57
2022/05/31 11:30:21;;;;;;;1.83;1.63;;;;;;;;;;4996720;28;20257;-58
2022/05/31 11:32:53;;;;;;;2.17;1.73;;;;;;;;;;4992518;28;20638;-55
2022/05/31 11:35:38;;;;;;;2.05;1.80;;;;;;;;;;4990327;28;20274;-58
2022/05/31 11:38:17;;;;;;;2.17;1.92;;;;;;;;;;4991877;28;20201;-58
2022/05/31 11:40:46;;;;;;;2.08;1.70;;;;;;;;;;4985554;28;20726;-57
2022/05/31 11:43:30;;;;;;;3.05;1.65;;;;;;;;;;4994559;28;20185;-57
2022/05/31 11:46:35;;;;;;;3.08;1.77;;;;;;;;;;4985032;28;20236;-58
2022/05/31 11:49:02;;;;;;;4.03;1.80;;;;;;;;;;4940766;28;20265;-58
2022/05/31 11:51:33;;;;;;;1.73;1.52;;;;;;;;;;4937081;28;20599;-57
2022/05/31 11:54:04;;;;;;;1.52;1.42;;;;;;;;;;4960445;28;20208;-57
2022/05/31 11:56:39;;;;;;;2.17;1.58;;;;;;;;;;4995288;28;20213;-57
2022/05/31 11:59:20;;;;;;;3.55;1.90;;;;;;;;;;4997096;28;20195;-56
2022/05/31 12:01:50;;;;;;;2.15;1.52;;;;;;;;;;4993183;28;20193;-56
2022/05/31 12:04:34;;;;;;;2.72;1.70;;;;;;;;;;4982791;28;20234;-57
2022/05/31 12:07:04;;;;;;;2.10;1.67;;;;;;;;;;4981169;28;20239;-56
2022/05/31 12:09:36;;;;;;;2.78;1.70;;;;;;;;;;4995431;28;20200;-56
2022/05/31 12:12:16;;;;;;;2.13;1.63;;;;;;;;;;4988747;28;20247;-58
2022/05/31 12:14:44;;;;;;;1.80;1.70;;;;;;;;;;4993368;28;20199;-58
2022/05/31 12:17:10;;;;;;;2.78;1.60;;;;;;;;;;4993571;28;20193;-56
2022/05/31 12:19:39;;;;;;;2.40;1.60;;;;;;;;;;4997026;28;20185;-57
2022/05/31 12:22:13;;;;;;;2.25;1.77;;;;;;;;;;4995762;28;20201;-57
2022/05/31 12:24:40;;;;;;;5.78;1.70;;;;;;;;;;4989398;28;20194;-58
2022/05/31 12:27:16;;;;;;;1.70;1.60;;;;;;;;;;4990022;28;20580;-58
2022/05/31 12:29:44;;;;;;;3.63;1.75;;;;;;;;;;4985657;28;20205;-57
2022/05/31 12:32:30;;;;;;;2.08;1.70;;;;;;;;;;4988582;28;20190;-57
2022/05/31 12:34:57;;;;;;;4.00;1.90;;;;;;;;;;4990029;28;20185;-57
2022/05/31 12:37:23;;;;;;;3.33;1.73;;;;;;;;;;4995881;28;20182;-57
2022/05/31 12:39:50;;;;;;;4.10;1.80;;;;;;;;;;4990057;28;20647;-57
2022/05/31 12:42:17;;;;;;;2.10;1.77;;;;;;;;;;4990968;28;20568;-57
2022/05/31 12:44:43;;;;;;;2.10;1.90;;;;;;;;;;4994445;28;20186;-57
2022/05/31 12:47:30;;;;;;;2.08;1.88;;;;;;;;;;4996367;28;20702;-57
2022/05/31 12:49:57;;;;;;;1.98;1.70;;;;;;;;;;4997201;28;20179;-57
2022/05/31 12:55:13;;;;;;;2.20;1.65;;;;;;;;;;4987489;28;20188;-57
2022/05/31 13:00:34;;;;;;;3.95;1.80;;;;;;;;;;4984485;28;20208;-57
2022/05/31 13:03:00;;;;;;;2.53;1.98;;;;;;;;;;4987848;28;20574;-58
2022/05/31 13:05:31;;;;;;;2.63;1.77;;;;;;;;;;4989651;28;20260;-57
2022/05/31 13:08:10;;;;;;;4.78;2.00;;;;;;;;;;4990556;28;20174;-58
2022/05/31 13:19:34;;;;;;;5.05;2.10;;;;;;;;;;4987415;28;20742;-58
2022/05/31 13:19:38;;;;;;;3.33;2.03;;;;;;;;;;4961815;28;20289;-58
2022/05/31 13:22:04;;;;;;;2.47;1.90;;;;;;;;;;4992291;28;20214;-57
2022/05/31 13:24:30;;;;;;;2.10;1.70;;;;;;;;;;4992115;28;20993;-56
2022/05/31 13:26:57;;;;;;;3.25;1.80;;;;;;;;;;4990832;28;20186;-57
2022/05/31 13:29:23;;;;;;;2.67;1.73;;;;;;;;;;4992155;28;20225;-57
2022/05/31 13:31:49;;;;;;;1.98;1.75;;;;;;;;;;5003634;28;20778;-56
2022/05/31 13:34:24;;;;;;;4.53;1.80;;;;;;;;;;4998560;28;20324;-57
2022/05/31 13:36:50;;;;;;;1.98;1.73;;;;;;;;;;4999174;28;20736;-58
2022/05/31 13:39:16;;;;;;;1.65;1.55;;;;;;;;;;5001677;28;20816;-58
2022/05/31 13:41:52;;;;;;;3.10;1.85;;;;;;;;;;5005211;28;20558;-58
2022/05/31 13:44:19;;;;;;;2.05;1.80;;;;;;;;;;4985892;28;20197;-59
2022/05/31 13:46:45;;;;;;;2.78;2.15;;;;;;;;;;4972536;28;20197;-60
2022/05/31 13:49:16;;;;;;;2.03;1.70;;;;;;;;;;4991336;28;20196;-59
2022/05/31 13:51:56;;;;;;;2.40;1.65;;;;;;;;;;4992825;28;20221;-58
2022/05/31 13:54:22;;;;;;;2.47;1.70;;;;;;;;;;4994517;28;20220;-58
2022/05/31 13:56:49;;;;;;;2.17;1.70;;;;;;;;;;4995692;28;20197;-58
2022/05/31 13:59:29;;;;;;;2.17;1.83;;;;;;;;;;4988769;28;20182;-59
2022/05/31 14:01:55;;;;;;;2.75;1.98;;;;;;;;;;5000703;28;20205;-59
2022/05/31 14:04:21;;;;;;;3.80;2.05;;;;;;;;;;4997876;28;20237;-59
2022/05/31 14:06:47;;;;;;;3.45;2.28;;;;;;;;;;4984592;28;20190;-58
2022/05/31 14:09:15;;;;;;;3.28;1.98;;;;;;;;;;4993140;28;20224;-57
2022/05/31 14:11:43;;;;;;;3.95;2.92;;;;;;;;;;4993120;28;20240;-57
2022/05/31 14:14:14;;;;;;;2.70;2.50;;;;;;;;;;4992939;28;20550;-57
2022/05/31 14:16:40;;;;;;;3.33;3.03;;;;;;;;;;4992356;28;20614;-57
2022/05/31 14:19:16;;;;;;;3.38;3.08;;;;;;;;;;4994032;28;21411;-57
2022/05/31 14:21:42;;;;;;;6.97;2.50;;;;;;;;;;4989404;28;20661;-56
2022/05/31 14:24:11;;;;;;;3.78;2.10;;;;;;;;;;4990885;28;20193;-57
2022/05/31 14:26:38;;;;;;;2.90;2.47;;;;;;;;;;4990901;28;20281;-57
2022/05/31 14:29:11;;;;;;;4.05;2.20;;;;;;;;;;4992325;28;20221;-57
2022/05/31 14:31:38;;;;;;;3.30;2.40;;;;;;;;;;4987551;28;20671;-57
2022/05/31 14:34:04;;;;;;;2.45;2.25;;;;;;;;;;4998652;28;20276;-57
2022/05/31 14:36:31;;;;;;;5.05;2.45;;;;;;;;;;4998594;28;20658;-57
2022/05/31 14:38:57;;;;;;;2.53;1.90;;;;;;;;;;4983107;28;20188;-57
2022/05/31 14:41:29;;;;;;;3.63;2.15;;;;;;;;;;4985176;28;20207;-57
2022/05/31 14:43:56;;;;;;;3.03;2.10;;;;;;;;;;4987861;28;20197;-57
2022/05/31 14:46:40;;;;;;;2.23;2.07;;;;;;;;;;4979071;28;20655;-57
2022/05/31 14:49:10;;;;;;;2.85;2.10;;;;;;;;;;4996782;28;20224;-57
2022/05/31 14:51:37;;;;;;;2.38;2.17;;;;;;;;;;4989997;28;20655;-58
2022/05/31 14:54:03;;;;;;;4.00;2.33;;;;;;;;;;4980923;28;20657;-58
2022/05/31 14:56:37;;;;;;;2.58;2.20;;;;;;;;;;4982002;28;20606;-58
2022/05/31 14:59:03;;;;;;;5.25;2.30;;;;;;;;;;4984561;28;20231;-59
2022/05/31 15:01:44;;;;;;;2.75;2.00;;;;;;;;;;4977970;28;20185;-58
2022/05/31 15:04:16;;;;;;;3.65;2.15;;;;;;;;;;4981372;28;20244;-58
2022/05/31 15:06:42;;;;;;;3.25;2.38;;;;;;;;;;4996267;28;20200;-58
2022/05/31 15:09:10;;;;;;;3.90;2.20;;;;;;;;;;4984272;28;23945;-58
2022/05/31 15:19:51;;;;;;;3.10;2.03;;;;;;;;;;4988420;28;20201;-59
2022/05/31 15:22:21;;;;;;;2.17;2.00;;;;;;;;;;4990709;28;20190;-58
2022/05/31 15:24:48;;;;;;;2.43;2.00;;;;;;;;;;4995901;28;20256;-58
2022/05/31 15:27:25;;;;;;;3.17;2.20;;;;;;;;;;4988059;28;20221;-59
2022/05/31 15:29:51;;;;;;;2.93;1.90;;;;;;;;;;4983319;28;20242;-57
2022/05/31 15:32:18;;;;;;;2.77;2.30;;;;;;;;;;4985309;28;20196;-58